createdAt,value
2018-06-28T00:00:45.077Z,3.77
2018-06-28T00:05:20.011Z,3.70
2018-06-28T00:09:54.326Z,3.47
2018-06-28T00:14:28.761Z,3.83
2018-06-28T00:19:03.114Z,3.80
2018-06-28T00:23:37.581Z,3.80
2018-06-28T00:28:11.890Z,4.00
2018-06-28T00:32:47.049Z,3.45
2018-06-28T00:37:21.553Z,4.00
2018-06-28T00:41:56.922Z,4.05
2018-06-28T00:46:31.369Z,4.40
2018-06-28T00:51:06.014Z,4.10
2018-06-28T00:55:40.299Z,4.03
2018-06-28T01:00:14.966Z,4.33
2018-06-28T01:04:49.478Z,4.10
2018-06-28T01:09:23.955Z,4.53
2018-06-28T01:13:58.398Z,4.40
2018-06-28T01:18:32.842Z,4.90
2018-06-28T01:23:07.514Z,4.33
2018-06-28T01:27:41.613Z,4.37
2018-06-28T01:32:15.838Z,4.65
2018-06-28T01:36:50.524Z,4.85
2018-06-28T01:41:25.786Z,4.67
2018-06-28T01:46:00.433Z,5.10
2018-06-28T01:50:34.822Z,5.20
2018-06-28T01:55:09.654Z,4.83
2018-06-28T01:59:44.557Z,4.95
2018-06-28T02:04:18.954Z,5.15
2018-06-28T02:08:53.211Z,5.10
2018-06-28T02:13:27.592Z,4.70
2018-06-28T02:18:02.052Z,5.12
2018-06-28T02:22:36.521Z,5.25
2018-06-28T02:27:11.422Z,5.60
2018-06-28T02:31:45.973Z,5.42
2018-06-28T02:36:20.820Z,5.42
2018-06-28T02:40:55.135Z,5.30
2018-06-28T02:45:29.710Z,5.50
2018-06-28T02:50:04.178Z,6.08
2018-06-28T02:54:38.064Z,6.00
2018-06-28T02:59:12.473Z,5.65
2018-06-28T03:03:46.748Z,5.25
2018-06-28T03:08:21.122Z,5.70
2018-06-28T03:12:56.003Z,5.83
2018-06-28T03:17:30.430Z,6.17
2018-06-28T03:22:04.733Z,6.00
2018-06-28T03:26:39.057Z,5.58
2018-06-28T03:31:13.415Z,5.62
2018-06-28T03:35:48.047Z,6.20
2018-06-28T03:40:22.405Z,6.40
2018-06-28T03:44:56.909Z,5.92
2018-06-28T03:49:31.889Z,6.43
2018-06-28T03:54:07.046Z,6.33
2018-06-28T03:58:41.578Z,6.20
2018-06-28T04:03:16.129Z,6.00
2018-06-28T04:07:50.560Z,5.65
2018-06-28T04:12:24.997Z,6.55
2018-06-28T04:16:59.258Z,5.42
2018-06-28T04:21:33.674Z,5.92
2018-06-28T04:26:07.985Z,5.30
2018-06-28T04:30:42.478Z,5.20
2018-06-28T04:35:16.846Z,5.22
2018-06-28T04:39:51.377Z,5.22
2018-06-28T04:44:25.948Z,4.25
2018-06-28T04:49:00.429Z,3.85
2018-06-28T04:53:35.062Z,4.10
2018-06-28T04:58:09.229Z,4.00
2018-06-28T05:02:43.359Z,4.20
2018-06-28T05:07:17.858Z,4.08
2018-06-28T05:11:52.298Z,3.83
2018-06-28T05:16:26.967Z,3.80
2018-06-28T05:21:01.752Z,3.50
2018-06-28T05:25:35.761Z,3.62
2018-06-28T05:30:10.103Z,3.62
2018-06-28T05:34:44.507Z,3.25
2018-06-28T05:39:18.745Z,3.50
2018-06-28T05:43:53.273Z,3.52
2018-06-28T05:48:27.814Z,3.40
2018-06-28T05:53:02.217Z,3.30
2018-06-28T05:57:36.678Z,3.40
2018-06-28T06:02:11.128Z,3.40
2018-06-28T06:06:45.633Z,3.20
2018-06-28T06:11:20.146Z,3.15
2018-06-28T06:15:54.575Z,3.25
2018-06-28T06:20:28.947Z,3.05
2018-06-28T06:25:03.395Z,3.30
2018-06-28T06:29:37.897Z,3.33
2018-06-28T06:34:12.358Z,3.30
2018-06-28T06:38:47.795Z,3.58
2018-06-28T06:43:22.466Z,3.52
2018-06-28T06:47:56.906Z,3.60
2018-06-28T06:52:31.486Z,3.02
2018-06-28T06:57:06.160Z,3.15
2018-06-28T07:01:41.298Z,3.33
2018-06-28T07:06:16.264Z,3.40
2018-06-28T07:10:50.643Z,3.37
2018-06-28T07:15:24.934Z,3.42
2018-06-28T07:19:59.333Z,3.10
2018-06-28T07:24:34.054Z,3.30
2018-06-28T07:29:08.619Z,3.12
2018-06-28T07:33:43.474Z,3.60
2018-06-28T07:38:17.953Z,3.37
2018-06-28T07:42:52.362Z,3.60
2018-06-28T07:47:26.745Z,3.33
2018-06-28T07:52:01.259Z,3.15
2018-06-28T07:56:35.843Z,3.45
2018-06-28T08:01:10.325Z,3.70
2018-06-28T08:05:45.045Z,3.58
2018-06-28T08:10:19.811Z,3.58
2018-06-28T08:14:54.739Z,3.70
2018-06-28T08:19:29.151Z,3.30
2018-06-28T08:24:04.132Z,3.60
2018-06-28T08:28:39.579Z,3.65
2018-06-28T08:33:13.979Z,3.92
2018-06-28T08:37:48.473Z,3.60
2018-06-28T08:42:23.059Z,3.50
2018-06-28T08:46:57.420Z,3.55
2018-06-28T08:51:31.899Z,3.77
2018-06-28T08:56:07.190Z,3.15
2018-06-28T09:00:41.662Z,3.95
2018-06-28T09:05:16.125Z,3.35
2018-06-28T09:09:50.764Z,3.22
2018-06-28T09:14:25.357Z,3.20
2018-06-28T09:18:59.852Z,3.40
2018-06-28T09:23:34.642Z,3.40
2018-06-28T09:28:09.152Z,3.40
2018-06-28T09:32:43.650Z,3.55
2018-06-28T09:37:18.639Z,3.50
2018-06-28T09:41:53.075Z,3.85
2018-06-28T09:46:27.686Z,3.95
2018-06-28T09:51:02.130Z,3.20
2018-06-28T09:55:36.838Z,3.20
2018-06-28T10:00:11.158Z,3.10
2018-06-28T10:04:45.508Z,3.10
2018-06-28T10:09:19.945Z,2.83
2018-06-28T10:13:54.532Z,2.85
2018-06-28T10:18:28.993Z,2.90
2018-06-28T10:23:03.388Z,2.92
2018-06-28T10:27:37.610Z,2.75
2018-06-28T10:32:12.100Z,3.05
2018-06-28T10:36:46.566Z,2.80
2018-06-28T10:41:21.073Z,3.17
2018-06-28T10:45:55.395Z,2.80
2018-06-28T10:50:29.657Z,2.90
2018-06-28T10:55:04.309Z,3.00
2018-06-28T10:59:38.982Z,3.05
2018-06-28T11:04:13.558Z,3.00
2018-06-28T11:08:47.967Z,3.08
2018-06-28T11:13:22.590Z,2.90
2018-06-28T11:17:57.363Z,2.90
2018-06-28T11:22:32.142Z,3.70
2018-06-28T11:27:06.977Z,3.33
2018-06-28T11:31:41.780Z,3.20
2018-06-28T11:36:16.748Z,3.20
2018-06-28T11:40:51.838Z,3.30
2018-06-28T11:45:26.544Z,3.60
2018-06-28T11:50:00.881Z,3.50
2018-06-28T11:54:35.757Z,3.35
2018-06-28T11:59:10.174Z,3.50
2018-06-28T12:03:44.627Z,3.42
2018-06-28T12:08:18.837Z,3.10
2018-06-28T12:12:53.283Z,3.10
2018-06-28T12:17:27.723Z,3.25
2018-06-28T12:22:02.615Z,3.12
2018-06-28T12:26:36.843Z,3.05
2018-06-28T12:31:11.542Z,3.67
2018-06-28T12:35:46.025Z,3.12
2018-06-28T12:40:20.301Z,3.33
2018-06-28T12:44:54.850Z,3.35
2018-06-28T12:49:29.266Z,3.25
2018-06-28T12:54:03.874Z,3.22
2018-06-28T12:58:37.932Z,3.35
2018-06-28T13:03:12.386Z,3.15
2018-06-28T13:07:46.821Z,3.08
2018-06-28T13:12:21.549Z,3.35
2018-06-28T13:16:55.844Z,3.25
2018-06-28T13:21:30.194Z,2.92
2018-06-28T13:26:04.614Z,3.00
2018-06-28T13:30:39.160Z,2.90
2018-06-28T13:35:13.665Z,3.00
2018-06-28T13:39:48.912Z,2.90
2018-06-28T13:44:23.397Z,2.90
2018-06-28T13:48:58.533Z,2.80
2018-06-28T13:53:33.426Z,2.92
2018-06-28T13:58:08.222Z,3.42
2018-06-28T14:02:43.525Z,2.67
2018-06-28T14:07:17.954Z,3.10
2018-06-28T14:11:52.480Z,2.80
2018-06-28T14:16:27.061Z,2.72
2018-06-28T14:21:01.982Z,3.02
2018-06-28T14:25:36.289Z,3.00
2018-06-28T14:30:12.387Z,3.00
2018-06-28T14:34:46.736Z,3.00
2018-06-28T14:39:21.260Z,3.10
2018-06-28T14:43:55.748Z,2.85
2018-06-28T14:48:30.352Z,3.58
2018-06-28T14:53:05.397Z,2.95
2018-06-28T14:57:39.729Z,2.72
2018-06-28T15:02:14.405Z,2.92
2018-06-28T15:06:49.157Z,2.77
2018-06-28T15:11:23.673Z,2.80
2018-06-28T15:15:58.013Z,2.70
2018-06-28T15:20:33.068Z,2.60
2018-06-28T15:25:07.761Z,2.87
2018-06-28T15:29:42.034Z,2.85
2018-06-28T15:34:16.833Z,2.67
2018-06-28T15:38:51.328Z,3.20
2018-06-28T15:43:25.874Z,2.90
2018-06-28T15:48:00.289Z,3.60
2018-06-28T15:52:34.587Z,2.72
2018-06-28T15:57:09.122Z,2.80
2018-06-28T16:01:43.614Z,3.00
2018-06-28T16:06:17.796Z,2.83
2018-06-28T16:10:52.249Z,2.90
2018-06-28T16:15:26.614Z,2.83
2018-06-28T16:20:01.491Z,2.90
2018-06-28T16:24:35.766Z,3.22
2018-06-28T16:29:10.153Z,3.10
2018-06-28T16:33:44.888Z,3.15
2018-06-28T16:38:19.369Z,3.02
2018-06-28T16:42:53.705Z,3.17
2018-06-28T16:47:28.382Z,3.12
2018-06-28T16:52:02.670Z,3.05
2018-06-28T16:56:37.011Z,3.35
2018-06-28T17:01:11.745Z,2.77
2018-06-28T17:05:46.822Z,2.92
2018-06-28T17:10:21.166Z,3.00
2018-06-28T17:14:55.809Z,2.90
2018-06-28T17:19:30.487Z,3.00
2018-06-28T17:24:05.188Z,2.77
2018-06-28T17:28:39.546Z,2.90
2018-06-28T17:33:14.471Z,2.70
2018-06-28T17:37:49.349Z,2.72
2018-06-28T17:42:23.876Z,3.00
2018-06-28T17:46:58.483Z,3.50
2018-06-28T17:51:32.733Z,3.33
2018-06-28T17:56:07.517Z,3.40
2018-06-28T18:00:41.946Z,3.40
2018-06-28T18:05:16.285Z,3.20
2018-06-28T18:09:50.942Z,3.30
2018-06-28T18:14:25.470Z,3.15
2018-06-28T18:18:59.744Z,3.45
2018-06-28T18:23:34.039Z,3.30
2018-06-28T18:28:08.752Z,3.15
2018-06-28T18:32:43.008Z,3.47
2018-06-28T18:37:17.433Z,3.80
2018-06-28T18:41:51.978Z,3.65
2018-06-28T18:46:27.242Z,4.00
2018-06-28T18:51:02.337Z,3.70
2018-06-28T18:55:36.722Z,3.72
2018-06-28T19:00:11.327Z,4.12
2018-06-28T19:04:46.455Z,4.10
2018-06-28T19:09:23.925Z,4.83
2018-06-28T19:14:05.168Z,4.25
2018-06-28T19:18:40.943Z,4.30
2018-06-28T19:23:20.899Z,4.12
2018-06-28T19:27:57.387Z,4.00
2018-06-28T19:32:33.945Z,4.28
2018-06-28T19:37:12.352Z,4.35
2018-06-28T19:41:52.094Z,4.00
2018-06-28T19:46:28.609Z,6.17
2018-06-28T19:51:08.423Z,4.72
2018-06-28T19:55:44.871Z,4.37
2018-06-28T20:00:27.388Z,4.80
2018-06-28T20:05:01.984Z,4.62
2018-06-28T20:09:38.856Z,4.90
2018-06-28T20:14:20.153Z,5.83
2018-06-28T20:19:02.403Z,4.97
2018-06-28T20:23:45.800Z,10.88
2018-06-28T20:28:28.514Z,5.05
2018-06-28T20:33:08.587Z,5.67
2018-06-28T20:37:43.078Z,5.90
2018-06-28T20:42:19.281Z,5.72
2018-06-28T20:46:53.708Z,6.10
2018-06-28T20:51:28.020Z,5.85
2018-06-28T20:56:02.298Z,6.05
2018-06-28T21:00:40.003Z,5.70
2018-06-28T21:05:16.051Z,5.97
2018-06-28T21:09:53.945Z,5.90
2018-06-28T21:14:28.639Z,5.67
2018-06-28T21:19:04.453Z,5.78
2018-06-28T21:23:40.258Z,6.00
2018-06-28T21:28:14.690Z,5.83
2018-06-28T21:32:50.593Z,6.05
2018-06-28T21:37:26.959Z,5.97
2018-06-28T21:42:01.254Z,6.28
2018-06-28T21:46:36.142Z,6.70
2018-06-28T21:51:10.782Z,6.58
2018-06-28T21:55:45.209Z,6.08
2018-06-28T22:00:38.613Z,5.87
2018-06-28T22:05:13.734Z,6.10
2018-06-28T22:09:47.950Z,6.08
2018-06-28T22:14:22.470Z,6.00
2018-06-28T22:18:57.545Z,5.92
2018-06-28T22:23:31.937Z,5.80
2018-06-28T22:28:06.469Z,6.10
2018-06-28T22:32:41.424Z,6.62
2018-06-28T22:37:16.122Z,6.50
2018-06-28T22:41:50.502Z,6.30
2018-06-28T22:46:24.753Z,5.90
2018-06-28T22:50:59.325Z,5.97
2018-06-28T22:55:33.841Z,6.00
2018-06-28T23:00:09.164Z,6.08
2018-06-28T23:04:43.856Z,6.45
2018-06-28T23:09:18.365Z,6.55
2018-06-28T23:13:52.950Z,5.90
2018-06-28T23:18:27.489Z,6.30
2018-06-28T23:23:01.750Z,6.17
2018-06-28T23:27:36.298Z,6.00
2018-06-28T23:32:10.821Z,6.28
2018-06-28T23:36:45.262Z,6.85
2018-06-28T23:41:19.669Z,6.37
2018-06-28T23:45:54.135Z,6.40
2018-06-28T23:50:28.677Z,6.30
2018-06-28T23:55:03.810Z,6.40
2018-06-28T23:59:38.043Z,6.30
